Time;durP1;ratioP1;P1;durP2;ratioP2;P2;SDS_P1;SDS_P2;PMS_P1;PMS_P2;Temp;Humidity;BMP_temperature;BMP_pressure;BME280_temperature;BME280_humidity;BME280_pressure;Samples;Min_cycle;Max_cycle;Signal;HPM_P1;HPM_P2
2024/04/07 00:01:17;;;;;;;8.95;2.45;;;;;18.40;100488.00;;;;10297388;28;20231;-82
2024/04/07 00:06:18;;;;;;;10.95;2.50;;;;;18.30;100473.00;;;;10316797;28;20270;-82
2024/04/07 00:11:19;;;;;;;5.47;2.50;;;;;18.30;100498.00;;;;10310445;28;20266;-83
2024/04/07 00:16:21;;;;;;;8.65;2.38;;;;;18.20;100497.00;;;;10295085;28;20219;-83
2024/04/07 00:21:21;;;;;;;9.98;2.35;;;;;18.10;100497.00;;;;10329251;28;20223;-83
2024/04/07 00:26:23;;;;;;;5.75;2.17;;;;;18.00;100503.00;;;;10318516;28;20270;-83
2024/04/07 00:31:24;;;;;;;11.25;2.95;;;;;17.90;100512.00;;;;10300100;28;20223;-84
2024/04/07 00:36:25;;;;;;;8.05;2.83;;;;;17.90;100523.00;;;;10328663;28;20223;-83
2024/04/07 00:41:27;;;;;;;6.55;2.28;;;;;17.90;100527.00;;;;10299484;28;20240;-84
2024/04/07 00:46:28;;;;;;;8.05;3.08;;;;;17.80;100544.00;;;;10309744;28;20219;-83
2024/04/07 00:51:29;;;;;;;10.57;2.65;;;;;17.70;100558.00;;;;10325029;28;20792;-82
2024/04/07 00:56:30;;;;;;;7.53;2.47;;;;;17.70;100580.00;;;;10325014;28;20226;-83
2024/04/07 01:01:32;;;;;;;4.93;1.85;;;;;17.70;100551.00;;;;10311622;28;20227;-84
2024/04/07 01:06:34;;;;;;;7.00;2.08;;;;;17.80;100581.00;;;;10312098;28;20219;-83
2024/04/07 01:11:35;;;;;;;9.52;1.80;;;;;17.80;100579.00;;;;10292694;28;20843;-83
2024/04/07 01:16:36;;;;;;;4.90;1.23;;;;;17.80;100594.00;;;;10314920;28;20679;-83
2024/04/07 01:21:37;;;;;;;4.20;1.48;;;;;17.70;100624.00;;;;10313624;28;20231;-83
2024/04/07 01:26:38;;;;;;;4.20;1.42;;;;;17.70;100640.00;;;;10311794;28;20219;-83
2024/04/07 01:31:39;;;;;;;2.22;1.38;;;;;17.60;100648.00;;;;10314347;28;20222;-77
2024/04/07 01:36:40;;;;;;;4.05;1.30;;;;;17.60;100655.00;;;;10311736;28;20231;-77
2024/04/07 01:41:41;;;;;;;1.75;0.90;;;;;17.50;100678.00;;;;10310932;28;20212;-78
2024/04/07 01:46:42;;;;;;;2.53;1.33;;;;;17.40;100679.00;;;;10326695;28;20227;-78
2024/04/07 01:51:43;;;;;;;4.38;1.17;;;;;17.40;100693.00;;;;10308497;28;20302;-77
2024/04/07 01:56:44;;;;;;;1.73;1.05;;;;;17.30;100721.00;;;;10310115;28;20219;-77
2024/04/07 02:01:45;;;;;;;2.58;0.95;;;;;17.20;100733.00;;;;10323415;28;20857;-77
2024/04/07 02:06:46;;;;;;;2.80;0.80;;;;;17.00;100735.00;;;;10297171;28;20231;-78
2024/04/07 02:11:48;;;;;;;5.22;0.80;;;;;16.40;100716.00;;;;10302481;28;20224;-77
2024/04/07 02:16:49;;;;;;;2.60;0.80;;;;;16.00;100720.00;;;;10286614;28;20235;-78
2024/04/07 02:21:50;;;;;;;2.60;0.90;;;;;15.90;100729.00;;;;10296064;28;20242;-78
2024/04/07 02:26:51;;;;;;;5.45;0.82;;;;;15.60;100741.00;;;;10323594;28;20683;-78
2024/04/07 02:31:52;;;;;;;3.45;0.90;;;;;15.20;100754.00;;;;10305860;28;20215;-78
2024/04/07 02:36:53;;;;;;;3.47;0.93;;;;;14.90;100750.00;;;;10292691;28;20227;-79
2024/04/07 02:41:53;;;;;;;2.17;0.63;;;;;14.60;100750.00;;;;10292124;28;20300;-83
2024/04/07 02:52:14;;;;;;;2.72;0.50;;;;;14.70;100739.00;;;;10325840;28;20228;-84
2024/04/07 02:57:15;;;;;;;1.40;0.65;;;;;14.80;100760.00;;;;10306151;28;20223;-84
2024/04/07 03:02:16;;;;;;;1.95;0.60;;;;;14.80;100744.00;;;;10324913;28;20242;-83
2024/04/07 03:07:17;;;;;;;2.05;0.63;;;;;14.50;100718.00;;;;10309089;28;20223;-84
2024/04/07 03:12:18;;;;;;;1.75;0.55;;;;;14.40;100711.00;;;;10309552;28;20227;-83
2024/04/07 03:17:19;;;;;;;2.43;0.40;;;;;14.30;100714.00;;;;10309190;28;20913;-84
2024/04/07 03:22:20;;;;;;;2.25;0.75;;;;;14.50;100700.00;;;;10323687;28;20730;-85
2024/04/07 03:27:21;;;;;;;1.33;0.60;;;;;14.70;100686.00;;;;10286399;28;20281;-83
2024/04/07 03:32:22;;;;;;;2.45;0.70;;;;;14.70;100673.00;;;;10311372;28;20219;-83
2024/04/07 03:37:23;;;;;;;1.70;0.50;;;;;14.80;100678.00;;;;10308899;28;20226;-85
2024/04/07 03:42:26;;;;;;;0.70;0.43;;;;;14.80;100669.00;;;;10314185;28;20835;-87
2024/04/07 03:47:27;;;;;;;1.60;0.50;;;;;14.90;100695.00;;;;10316993;28;20238;-84
2024/04/07 03:52:28;;;;;;;1.80;0.50;;;;;15.00;100703.00;;;;10313075;28;20241;-79
2024/04/07 03:57:29;;;;;;;1.08;0.40;;;;;14.80;100707.00;;;;10298362;28;20279;-77
2024/04/07 04:02:31;;;;;;;2.63;0.80;;;;;14.50;100692.00;;;;10328257;28;20759;-79
2024/04/07 04:07:32;;;;;;;1.50;0.50;;;;;14.30;100702.00;;;;10333845;28;20227;-80
2024/04/07 04:12:34;;;;;;;3.70;0.73;;;;;14.40;100717.00;;;;10313434;28;20224;-78
2024/04/07 04:17:35;;;;;;;1.27;0.50;;;;;14.60;100704.00;;;;10310936;28;20824;-78
2024/04/07 04:22:36;;;;;;;3.37;0.70;;;;;14.70;100721.00;;;;10310701;28;20226;-78
2024/04/07 04:27:37;;;;;;;1.65;0.60;;;;;14.70;100717.00;;;;10295673;28;20313;-79
2024/04/07 04:32:38;;;;;;;2.03;0.73;;;;;14.70;100718.00;;;;10300677;28;20223;-78
2024/04/07 04:37:39;;;;;;;2.40;0.52;;;;;14.70;100722.00;;;;10309564;28;20219;-79
2024/04/07 04:42:40;;;;;;;2.10;0.80;;;;;14.60;100722.00;;;;10313089;28;20844;-78
2024/04/07 04:47:42;;;;;;;2.80;1.00;;;;;14.60;100725.00;;;;10317599;28;20231;-78
2024/04/07 04:52:43;;;;;;;4.83;0.83;;;;;14.60;100721.00;;;;10303809;28;20220;-78
2024/04/07 04:57:47;;;;;;;2.03;1.13;;;;;14.60;100733.00;;;;10314396;28;20583;-78
2024/04/07 05:02:48;;;;;;;3.45;0.73;;;;;14.50;100734.00;;;;10297932;28;20326;-84
2024/04/07 05:07:51;;;;;;;3.10;0.70;;;;;14.50;100747.00;;;;10310621;28;20227;-85
2024/04/07 05:12:53;;;;;;;1.40;0.70;;;;;14.40;100741.00;;;;10305474;28;20337;-84
2024/04/07 05:17:54;;;;;;;2.77;1.00;;;;;14.40;100759.00;;;;10331890;28;20227;-84
2024/04/07 05:22:55;;;;;;;2.45;0.80;;;;;14.40;100764.00;;;;10310327;28;20223;-84
2024/04/07 05:27:56;;;;;;;2.55;1.08;;;;;14.40;100774.00;;;;10317971;28;20765;-84
2024/04/07 05:32:57;;;;;;;2.57;0.90;;;;;14.40;100787.00;;;;10309992;28;20269;-84
2024/04/07 05:37:58;;;;;;;1.70;0.90;;;;;14.50;100786.00;;;;10291166;28;20215;-85
2024/04/07 05:42:59;;;;;;;4.83;1.53;;;;;14.50;100786.00;;;;10309166;28;20226;-83
2024/04/07 05:48:00;;;;;;;4.80;1.10;;;;;14.50;100785.00;;;;10310657;28;20224;-84
2024/04/07 05:53:01;;;;;;;3.17;1.10;;;;;14.60;100803.00;;;;10306645;28;20227;-84
2024/04/07 05:58:03;;;;;;;2.47;1.10;;;;;14.60;100802.00;;;;10315290;28;20552;-84
2024/04/07 06:03:04;;;;;;;3.10;1.17;;;;;14.70;100804.00;;;;10309759;28;20212;-84
2024/04/07 06:08:07;;;;;;;4.17;1.03;;;;;14.90;100801.00;;;;10309795;28;20215;-84
2024/04/07 06:13:08;;;;;;;4.93;1.40;;;;;15.40;100812.00;;;;10296699;28;20226;-87
2024/04/07 06:18:09;;;;;;;2.13;0.90;;;;;15.80;100817.00;;;;10312052;28;20223;-86
2024/04/07 06:23:10;;;;;;;4.50;1.50;;;;;15.80;100831.00;;;;10307487;28;20795;-86
2024/04/07 06:28:11;;;;;;;3.22;1.55;;;;;15.70;100831.00;;;;10311130;28;20230;-88
2024/04/07 06:33:12;;;;;;;3.70;1.15;;;;;15.60;100839.00;;;;10288615;28;20761;-87
2024/04/07 06:38:13;;;;;;;3.92;1.15;;;;;15.80;100839.00;;;;10295630;28;20270;-86
2024/04/07 06:43:14;;;;;;;3.45;1.35;;;;;15.70;100824.00;;;;10293552;28;20237;-85
2024/04/07 06:48:15;;;;;;;2.08;1.00;;;;;15.50;100849.00;;;;10286944;28;20242;-85
2024/04/07 06:53:16;;;;;;;2.75;1.00;;;;;15.30;100861.00;;;;10309700;28;20321;-86
2024/04/07 06:58:16;;;;;;;4.30;1.10;;;;;15.90;100858.00;;;;10303191;28;20223;-84
2024/04/07 07:03:17;;;;;;;4.40;1.05;;;;;16.90;100867.00;;;;10300478;28;20215;-86
2024/04/07 07:08:18;;;;;;;3.75;0.90;;;;;17.60;100866.00;;;;10297312;28;20826;-86
2024/04/07 07:13:19;;;;;;;3.45;1.20;;;;;17.90;100865.00;;;;10322024;28;20790;-85
2024/04/07 07:18:21;;;;;;;3.67;1.17;;;;;18.20;100865.00;;;;10312233;28;20226;-85
2024/04/07 07:23:22;;;;;;;4.57;1.60;;;;;18.50;100886.00;;;;10329441;28;20227;-83
2024/04/07 07:28:23;;;;;;;4.25;1.20;;;;;18.60;100879.00;;;;10309594;28;20222;-84
2024/04/07 07:33:24;;;;;;;5.22;1.13;;;;;18.70;100888.00;;;;10315220;28;20241;-82
2024/04/07 07:38:25;;;;;;;3.63;1.45;;;;;18.90;100884.00;;;;10322643;28;20220;-84
2024/04/07 07:43:26;;;;;;;2.60;1.10;;;;;19.30;100895.00;;;;10313503;28;20687;-83
2024/04/07 07:48:27;;;;;;;4.22;1.30;;;;;19.70;100897.00;;;;10306123;28;20261;-83
2024/04/07 07:53:31;;;;;;;2.80;1.10;;;;;20.00;100903.00;;;;10331104;28;20215;-84
2024/04/07 07:58:35;;;;;;;4.22;0.95;;;;;20.10;100902.00;;;;10308177;28;20215;-84
2024/04/07 08:03:36;;;;;;;3.38;1.17;;;;;20.50;100894.00;;;;10335573;28;20230;-84
2024/04/07 08:08:37;;;;;;;3.67;1.10;;;;;20.90;100904.00;;;;10290427;28;20306;-84
2024/04/07 08:13:38;;;;;;;5.00;1.33;;;;;20.60;100902.00;;;;10298361;28;21212;-83
2024/04/07 08:18:40;;;;;;;3.00;1.13;;;;;20.90;100907.00;;;;10332696;28;20211;-83
2024/04/07 08:23:41;;;;;;;1.90;0.93;;;;;21.10;100913.00;;;;10308966;28;20231;-83
2024/04/07 08:28:42;;;;;;;3.25;0.98;;;;;20.90;100920.00;;;;10313584;28;20242;-83
2024/04/07 08:33:43;;;;;;;1.58;0.93;;;;;21.00;100939.00;;;;10329325;28;20222;-81
2024/04/07 08:38:44;;;;;;;2.15;0.80;;;;;21.30;100939.00;;;;10321933;28;20227;-83
2024/04/07 08:43:47;;;;;;;5.13;1.02;;;;;21.70;100929.00;;;;10328932;28;20826;-85
2024/04/07 08:48:52;;;;;;;5.05;1.30;;;;;22.30;100926.00;;;;10339683;28;20231;-83
2024/04/07 08:53:57;;;;;;;4.60;1.70;;;;;22.60;100916.00;;;;10317431;28;20215;-84
2024/04/07 08:58:59;;;;;;;4.60;1.15;;;;;22.90;100929.00;;;;10312116;28;20296;-84
2024/04/07 09:04:02;;;;;;;2.88;0.90;;;;;22.70;100927.00;;;;10348290;28;20440;-83
2024/04/07 09:09:04;;;;;;;4.00;1.00;;;;;23.20;100923.00;;;;10320047;28;20220;-84
2024/04/07 09:14:06;;;;;;;3.08;1.10;;;;;23.40;100927.00;;;;10323935;28;20230;-83
2024/04/07 09:19:06;;;;;;;2.60;0.90;;;;;23.40;100917.00;;;;10324771;28;20231;-84
2024/04/07 09:24:10;;;;;;;4.07;1.17;;;;;23.50;100932.00;;;;10329554;28;20247;-83
2024/04/07 09:29:11;;;;;;;4.70;1.00;;;;;23.70;100933.00;;;;10335522;28;20215;-84
2024/04/07 09:34:11;;;;;;;1.60;0.85;;;;;23.70;100934.00;;;;10338208;28;20287;-84
2024/04/07 09:39:13;;;;;;;2.67;0.90;;;;;23.60;100930.00;;;;10338825;28;20223;-85
2024/04/07 09:44:20;;;;;;;1.95;1.10;;;;;23.90;100931.00;;;;10292927;28;20223;-80
2024/04/07 09:49:23;;;;;;;2.75;1.00;;;;;24.00;100943.00;;;;10339542;28;20330;-80
2024/04/07 09:54:44;;;;;;;4.80;1.20;;;;;24.20;100942.00;;;;10294505;28;20230;-81
2024/04/07 09:59:48;;;;;;;2.85;0.80;;;;;23.70;100930.00;;;;10309251;28;20231;-80
2024/04/07 10:04:50;;;;;;;1.58;0.60;;;;;23.70;100914.00;;;;10314211;28;20231;-80
2024/04/07 10:09:54;;;;;;;1.58;0.85;;;;;24.00;100915.00;;;;10313122;28;20239;-79
2024/04/07 10:14:56;;;;;;;2.67;1.10;;;;;24.10;100928.00;;;;10292564;28;20956;-79
2024/04/07 10:19:58;;;;;;;2.78;0.82;;;;;23.90;100927.00;;;;10300685;28;20219;-78
2024/04/07 10:25:00;;;;;;;2.88;1.00;;;;;24.20;100926.00;;;;10322881;28;20699;-79
2024/04/07 10:30:03;;;;;;;2.72;1.20;;;;;24.40;100918.00;;;;10289559;28;20230;-79
2024/04/07 10:35:05;;;;;;;2.08;1.02;;;;;24.30;100916.00;;;;10323285;28;20219;-79
2024/04/07 10:40:09;;;;;;;2.92;0.90;;;;;24.70;100920.00;;;;10310289;28;20227;-79
2024/04/07 10:45:12;;;;;;;2.88;1.08;;;;;25.30;100908.00;;;;10301863;28;20230;-78
2024/04/07 10:50:12;;;;;;;1.45;1.00;;;;;25.60;100912.00;;;;10291010;28;20223;-79
2024/04/07 10:55:13;;;;;;;2.92;0.95;;;;;26.00;100906.00;;;;10321152;28;20806;-78
2024/04/07 11:00:15;;;;;;;2.85;1.10;;;;;26.30;100903.00;;;;10302680;28;20876;-78
2024/04/07 11:05:16;;;;;;;2.38;0.75;;;;;26.50;100897.00;;;;10312666;28;20273;-79
2024/04/07 11:10:17;;;;;;;0.75;0.65;;;;;26.30;100893.00;;;;10307015;28;20234;-79
2024/04/07 11:15:20;;;;;;;1.20;0.40;;;;;26.10;100900.00;;;;10301140;28;20245;-78
2024/04/07 11:20:22;;;;;;;2.38;0.57;;;;;26.20;100904.00;;;;10283469;28;20225;-78
2024/04/07 11:25:23;;;;;;;1.77;0.90;;;;;26.20;100912.00;;;;10301951;28;20222;-78
2024/04/07 11:30:33;;;;;;;2.10;0.77;;;;;26.40;100903.00;;;;10297448;28;20224;-79
2024/04/07 11:35:35;;;;;;;1.52;0.82;;;;;26.50;100897.00;;;;10307504;28;20219;-78
2024/04/07 11:40:36;;;;;;;3.03;0.93;;;;;26.40;100902.00;;;;10311152;28;20223;-78
2024/04/07 11:45:40;;;;;;;3.30;0.50;;;;;26.50;100899.00;;;;10331667;28;20256;-78
2024/04/07 11:50:41;;;;;;;2.10;0.80;;;;;26.20;100898.00;;;;10322335;28;20909;-79
2024/04/07 11:55:42;;;;;;;2.72;0.88;;;;;26.40;100900.00;;;;10298092;28;20310;-78
2024/04/07 12:00:43;;;;;;;3.53;0.70;;;;;26.60;100882.00;;;;10293985;28;20226;-84
2024/04/07 12:05:44;;;;;;;1.65;0.77;;;;;27.10;100875.00;;;;10325332;28;20274;-83
2024/04/07 12:10:46;;;;;;;1.58;0.90;;;;;27.30;100879.00;;;;10315630;28;20223;-84
2024/04/07 12:15:46;;;;;;;1.73;0.63;;;;;26.70;100884.00;;;;10316597;28;20273;-84
2024/04/07 12:20:47;;;;;;;1.08;0.60;;;;;26.20;100873.00;;;;10343886;28;20301;-83
2024/04/07 12:25:48;;;;;;;0.75;0.65;;;;;26.60;100878.00;;;;10302298;28;20231;-84
2024/04/07 12:30:52;;;;;;;1.75;0.73;;;;;27.20;100876.00;;;;10330541;28;20675;-85
2024/04/07 12:35:53;;;;;;;2.05;0.85;;;;;27.90;100869.00;;;;10290334;28;20238;-83
2024/04/07 12:40:55;;;;;;;1.48;0.50;;;;;28.10;100878.00;;;;10306327;28;20227;-84
2024/04/07 12:45:56;;;;;;;1.27;0.68;;;;;26.20;100881.00;;;;10294843;28;20231;-83
2024/04/07 12:50:57;;;;;;;0.43;0.40;;;;;25.60;100843.00;;;;10300726;28;20766;-83
2024/04/07 12:55:58;;;;;;;1.85;0.55;;;;;25.60;100856.00;;;;10342427;28;20230;-83
2024/04/07 13:01:02;;;;;;;3.00;0.60;;;;;25.40;100848.00;;;;10320319;28;20314;-84
2024/04/07 13:06:03;;;;;;;3.03;0.70;;;;;25.20;100838.00;;;;10297103;28;20227;-84
2024/04/07 13:11:05;;;;;;;2.58;0.60;;;;;25.50;100836.00;;;;10317737;28;20215;-79
2024/04/07 13:16:07;;;;;;;1.20;0.60;;;;;25.50;100844.00;;;;10297756;28;20282;-79
2024/04/07 13:21:08;;;;;;;3.08;0.55;;;;;24.90;100822.00;;;;10308472;28;20223;-79
2024/04/07 13:26:08;;;;;;;0.73;0.60;;;;;25.30;100815.00;;;;10311281;28;20361;-78
2024/04/07 13:31:09;;;;;;;2.13;0.70;;;;;25.10;100827.00;;;;10311567;28;20306;-77
2024/04/07 13:36:10;;;;;;;2.05;0.63;;;;;24.80;100817.00;;;;10294044;28;20215;-78
2024/04/07 13:41:12;;;;;;;2.53;0.85;;;;;23.90;100773.00;;;;10292579;28;20227;-78
2024/04/07 13:46:13;;;;;;;2.22;0.75;;;;;23.20;100768.00;;;;10309552;28;20230;-78
2024/04/07 13:51:14;;;;;;;0.50;0.40;;;;;23.60;100780.00;;;;10294845;28;20236;-78
2024/04/07 13:56:15;;;;;;;0.93;0.70;;;;;23.70;100791.00;;;;10308219;28;20223;-78
2024/04/07 14:01:16;;;;;;;2.47;0.82;;;;;23.10;100768.00;;;;10295725;28;20238;-79
2024/04/07 14:06:17;;;;;;;3.38;0.70;;;;;22.60;100755.00;;;;10298773;28;20900;-81
2024/04/07 14:11:18;;;;;;;2.10;0.77;;;;;22.90;100752.00;;;;10291536;28;20281;-78
2024/04/07 14:16:19;;;;;;;2.17;0.82;;;;;23.10;100737.00;;;;10287581;28;20261;-79
2024/04/07 14:21:20;;;;;;;1.40;0.80;;;;;22.90;100758.00;;;;10309849;28;20254;-82
2024/04/07 14:26:21;;;;;;;1.52;0.75;;;;;22.40;100754.00;;;;10300822;28;20246;-83
2024/04/07 14:31:22;;;;;;;3.95;1.20;;;;;22.10;100759.00;;;;10328354;28;20707;-83
2024/04/07 14:36:23;;;;;;;2.00;1.00;;;;;22.20;100771.00;;;;10324709;28;20227;-81
2024/04/07 14:41:24;;;;;;;4.22;1.10;;;;;22.00;100791.00;;;;10291707;28;20671;-83
2024/04/07 14:46:25;;;;;;;2.15;0.82;;;;;21.70;100759.00;;;;10291697;28;20272;-83
2024/04/07 14:51:26;;;;;;;3.85;0.90;;;;;21.60;100756.00;;;;10310935;28;20851;-83
2024/04/07 14:56:27;;;;;;;2.55;0.98;;;;;21.20;100755.00;;;;10286895;28;20215;-83
2024/04/07 15:01:28;;;;;;;3.95;1.00;;;;;22.50;100755.00;;;;10318060;28;20802;-82
2024/04/07 15:06:29;;;;;;;2.25;1.00;;;;;22.60;100772.00;;;;10291025;28;20265;-83
2024/04/07 15:11:30;;;;;;;2.15;1.05;;;;;22.40;100772.00;;;;10327355;28;20741;-82
2024/04/07 15:16:32;;;;;;;5.15;1.10;;;;;21.50;100768.00;;;;10310555;28;20738;-82
2024/04/07 15:21:33;;;;;;;1.27;0.63;;;;;20.80;100771.00;;;;10327993;28;20231;-82
2024/04/07 15:26:34;;;;;;;2.40;1.10;;;;;20.50;100746.00;;;;10304770;28;20591;-81
2024/04/07 15:31:35;;;;;;;2.83;0.93;;;;;20.20;100754.00;;;;10322142;28;20219;-78
2024/04/07 15:36:36;;;;;;;2.08;0.70;;;;;20.10;100746.00;;;;10307644;28;20223;-79
2024/04/07 15:41:37;;;;;;;1.95;0.80;;;;;19.90;100722.00;;;;10328040;28;20683;-79
2024/04/07 15:46:38;;;;;;;2.60;1.08;;;;;19.90;100720.00;;;;10327127;28;20255;-79
2024/04/07 15:51:41;;;;;;;1.77;0.63;;;;;19.60;100715.00;;;;10293862;28;20230;-79
2024/04/07 15:56:42;;;;;;;3.33;0.60;;;;;19.40;100705.00;;;;10321229;28;20219;-78
2024/04/07 16:01:45;;;;;;;1.73;0.85;;;;;19.50;100707.00;;;;10319382;28;20222;-78
2024/04/07 16:06:46;;;;;;;2.20;0.82;;;;;19.40;100708.00;;;;10311641;28;20227;-78
2024/04/07 16:11:47;;;;;;;3.33;0.85;;;;;19.40;100719.00;;;;10311707;28;20277;-79
2024/04/07 16:16:48;;;;;;;2.10;0.75;;;;;19.20;100723.00;;;;10297475;28;20258;-79
2024/04/07 16:21:48;;;;;;;3.47;0.98;;;;;19.10;100712.00;;;;10311997;28;20307;-78
2024/04/07 16:26:49;;;;;;;3.25;0.90;;;;;19.10;100702.00;;;;10322065;28;20240;-78
2024/04/07 16:31:50;;;;;;;3.22;0.70;;;;;19.00;100709.00;;;;10327811;28;20939;-78
2024/04/07 16:36:51;;;;;;;4.20;1.00;;;;;19.00;100716.00;;;;10303677;28;20266;-78
2024/04/07 16:41:52;;;;;;;1.70;0.90;;;;;18.80;100726.00;;;;10319856;28;20582;-88
2024/04/07 16:46:55;;;;;;;1.83;1.02;;;;;18.60;100730.00;;;;10328060;28;20690;-86
2024/04/07 16:51:57;;;;;;;4.88;1.20;;;;;18.40;100720.00;;;;10303617;28;20230;-87
2024/04/07 16:57:02;;;;;;;4.72;1.38;;;;;18.40;100723.00;;;;10312544;28;21020;-86
2024/04/07 17:02:03;;;;;;;3.45;1.08;;;;;18.50;100706.00;;;;10305814;28;20892;-85
2024/04/07 17:07:04;;;;;;;4.40;1.00;;;;;18.60;100705.00;;;;10302404;28;20227;-87
2024/04/07 17:12:05;;;;;;;3.38;1.30;;;;;18.00;100714.00;;;;10296475;28;20270;-87
2024/04/07 17:17:06;;;;;;;5.88;1.10;;;;;17.70;100703.00;;;;10304204;28;20857;-87
2024/04/07 17:22:08;;;;;;;3.00;1.08;;;;;17.80;100706.00;;;;10311802;28;20230;-86
2024/04/07 17:27:09;;;;;;;3.92;1.30;;;;;17.80;100701.00;;;;10315257;28;20231;-87
2024/04/07 17:32:10;;;;;;;4.45;1.00;;;;;17.80;100702.00;;;;10328826;28;20315;-87
2024/04/07 17:37:13;;;;;;;4.47;1.20;;;;;17.80;100695.00;;;;10310588;28;20215;-87
2024/04/07 17:42:14;;;;;;;3.95;1.27;;;;;17.80;100680.00;;;;10289862;28;20218;-86
2024/04/07 17:47:15;;;;;;;3.40;1.33;;;;;17.80;100669.00;;;;10309039;28;20286;-87
2024/04/07 17:52:16;;;;;;;4.68;1.85;;;;;17.70;100657.00;;;;10295439;28;20227;-86
2024/04/07 17:57:19;;;;;;;5.30;1.15;;;;;17.60;100650.00;;;;10306592;28;20254;-86
2024/04/07 18:02:21;;;;;;;3.97;1.42;;;;;17.60;100650.00;;;;10302912;28;20231;-87
2024/04/07 18:07:22;;;;;;;4.38;1.48;;;;;17.50;100651.00;;;;10291969;28;20223;-86
2024/04/07 18:12:23;;;;;;;4.20;1.45;;;;;17.40;100650.00;;;;10300497;28;20450;-87
2024/04/07 18:17:25;;;;;;;6.00;1.40;;;;;17.40;100657.00;;;;10310029;28;20227;-87
2024/04/07 18:22:28;;;;;;;5.95;1.67;;;;;17.30;100654.00;;;;10306749;28;20273;-87
2024/04/07 18:27:30;;;;;;;4.40;1.30;;;;;17.30;100668.00;;;;10322527;28;20223;-87
2024/04/07 18:32:31;;;;;;;3.63;1.33;;;;;17.20;100689.00;;;;10315333;28;20826;-83
2024/04/07 18:37:32;;;;;;;5.57;2.03;;;;;17.20;100676.00;;;;10327825;28;20308;-87
2024/04/07 18:42:33;;;;;;;3.97;1.63;;;;;17.20;100675.00;;;;10313502;28;20231;-87
2024/04/07 18:47:34;;;;;;;4.93;1.55;;;;;17.10;100684.00;;;;10284331;28;20666;-87
2024/04/07 18:52:35;;;;;;;5.53;1.70;;;;;17.00;100686.00;;;;10316377;28;20258;-85
2024/04/07 18:57:36;;;;;;;4.82;1.77;;;;;17.00;100660.00;;;;10295605;28;20690;-86
2024/04/07 19:02:44;;;;;;;6.15;1.80;;;;;17.00;100677.00;;;;10308083;28;20218;-80
2024/04/07 19:07:46;;;;;;;6.60;1.85;;;;;17.00;100673.00;;;;10332786;28;20227;-80
2024/04/07 19:12:46;;;;;;;4.43;1.75;;;;;16.90;100679.00;;;;10297927;28;20215;-81
2024/04/07 19:17:47;;;;;;;3.90;1.60;;;;;16.90;100688.00;;;;10318505;28;20242;-82
2024/04/07 19:22:48;;;;;;;4.63;1.85;;;;;16.80;100695.00;;;;10318962;28;20250;-81
2024/04/07 19:27:50;;;;;;;3.83;1.67;;;;;16.80;100716.00;;;;10301788;28;20223;-82
2024/04/07 19:32:51;;;;;;;5.10;2.03;;;;;16.60;100730.00;;;;10325814;28;20593;-81
2024/04/07 19:37:52;;;;;;;4.45;1.83;;;;;16.30;100753.00;;;;10294641;28;20226;-83
2024/04/07 19:42:53;;;;;;;2.22;1.48;;;;;16.00;100753.00;;;;10325221;28;20890;-87
2024/04/07 19:47:54;;;;;;;4.90;2.05;;;;;15.70;100768.00;;;;10320375;28;20227;-86
2024/04/07 19:52:54;;;;;;;8.27;2.10;;;;;15.40;100780.00;;;;10342356;28;20279;-84
2024/04/07 19:57:56;;;;;;;7.22;2.28;;;;;15.20;100789.00;;;;10318399;28;20223;-85
2024/04/07 20:02:57;;;;;;;4.32;1.80;;;;;15.10;100804.00;;;;10355844;28;20224;-85
2024/04/07 20:08:00;;;;;;;4.22;1.40;;;;;14.90;100818.00;;;;10296622;28;20249;-85
2024/04/07 20:13:01;;;;;;;7.03;1.83;;;;;14.70;100808.00;;;;10308814;28;20229;-78
2024/04/07 20:18:02;;;;;;;6.10;1.50;;;;;14.50;100810.00;;;;10307385;28;20217;-77
2024/04/07 20:23:03;;;;;;;6.75;1.70;;;;;14.40;100804.00;;;;10300056;28;20640;-79
2024/04/07 20:28:05;;;;;;;7.43;1.80;;;;;14.30;100805.00;;;;10344384;28;20907;-78
2024/04/07 20:33:06;;;;;;;6.27;1.97;;;;;14.20;100802.00;;;;10312114;28;20219;-78
2024/04/07 20:38:10;;;;;;;5.33;1.60;;;;;14.10;100801.00;;;;10313456;28;20223;-78
2024/04/07 20:43:11;;;;;;;5.82;2.03;;;;;14.00;100792.00;;;;10310459;28;20266;-77
2024/04/07 20:48:12;;;;;;;4.10;1.93;;;;;13.90;100785.00;;;;10328352;28;20281;-77
2024/04/07 20:53:13;;;;;;;4.87;1.50;;;;;13.80;100770.00;;;;10290088;28;20706;-78
2024/04/07 20:58:14;;;;;;;3.67;1.50;;;;;13.70;100756.00;;;;10311163;28;20215;-77
2024/04/07 21:03:15;;;;;;;3.40;1.73;;;;;13.60;100745.00;;;;10312831;28;20997;-78
2024/04/07 21:08:16;;;;;;;4.13;1.90;;;;;13.60;100731.00;;;;10316077;28;20960;-78
2024/04/07 21:13:17;;;;;;;2.57;1.80;;;;;13.60;100712.00;;;;10296621;28;20226;-78
2024/04/07 21:18:18;;;;;;;5.27;1.77;;;;;13.60;100705.00;;;;10295006;28;20303;-78
2024/04/07 21:23:19;;;;;;;3.00;1.80;;;;;13.60;100704.00;;;;10322052;28;20230;-78
2024/04/07 21:28:20;;;;;;;5.63;1.63;;;;;13.60;100687.00;;;;10312512;28;20310;-77
2024/04/07 21:33:21;;;;;;;6.20;1.67;;;;;13.60;100685.00;;;;10312689;28;20277;-83
2024/04/07 21:38:21;;;;;;;4.40;1.60;;;;;13.70;100674.00;;;;10292351;28;20690;-83
2024/04/07 21:43:23;;;;;;;7.00;1.80;;;;;13.70;100661.00;;;;10309862;28;20301;-81
2024/04/07 21:48:24;;;;;;;1.77;1.40;;;;;13.70;100657.00;;;;10292754;28;20679;-81
2024/04/07 21:53:25;;;;;;;1.90;1.57;;;;;13.70;100651.00;;;;10311859;28;20269;-82
2024/04/07 21:58:26;;;;;;;2.50;1.23;;;;;13.70;100644.00;;;;10324328;28;20223;-82
2024/04/07 22:03:27;;;;;;;4.20;1.40;;;;;13.70;100650.00;;;;10304347;28;20212;-82
2024/04/07 22:08:28;;;;;;;2.17;1.17;;;;;13.70;100654.00;;;;10308455;28;20227;-82
2024/04/07 22:13:29;;;;;;;1.57;1.17;;;;;13.70;100639.00;;;;10315137;28;20230;-84
2024/04/07 22:18:35;;;;;;;1.83;1.20;;;;;13.70;100641.00;;;;10297018;28;20235;-82
2024/04/07 22:23:36;;;;;;;4.53;1.67;;;;;13.70;100641.00;;;;10326434;28;20270;-82
2024/04/07 22:28:39;;;;;;;2.60;1.30;;;;;13.70;100651.00;;;;10317931;28;20627;-83
2024/04/07 22:33:40;;;;;;;4.67;1.57;;;;;13.70;100641.00;;;;10292126;28;20790;-82
2024/04/07 22:38:41;;;;;;;2.57;1.40;;;;;13.60;100618.00;;;;10311915;28;20225;-83
2024/04/07 22:43:42;;;;;;;2.13;1.43;;;;;13.60;100615.00;;;;10339048;28;20834;-78
2024/04/07 22:48:43;;;;;;;3.50;1.27;;;;;13.50;100617.00;;;;10287664;28;20231;-79
2024/04/07 22:53:44;;;;;;;4.57;1.77;;;;;13.50;100621.00;;;;10297504;28;20768;-78
2024/04/07 22:58:45;;;;;;;4.10;1.57;;;;;13.40;100639.00;;;;10326871;28;20219;-78
2024/04/07 23:03:46;;;;;;;4.00;1.23;;;;;13.40;100633.00;;;;10305844;28;20249;-77
2024/04/07 23:08:48;;;;;;;3.00;1.40;;;;;13.40;100622.00;;;;10289792;28;20237;-78
2024/04/07 23:13:49;;;;;;;4.17;1.40;;;;;13.40;100636.00;;;;10286551;28;20223;-78
2024/04/07 23:18:50;;;;;;;2.73;1.30;;;;;13.30;100665.00;;;;10322014;28;20259;-78
2024/04/07 23:23:51;;;;;;;2.60;1.10;;;;;13.30;100655.00;;;;10312205;28;20277;-78
2024/04/07 23:28:52;;;;;;;3.73;1.50;;;;;13.30;100661.00;;;;10291123;28;20231;-78
2024/04/07 23:33:53;;;;;;;3.03;1.30;;;;;13.30;100654.00;;;;10299585;28;20587;-79
2024/04/07 23:38:54;;;;;;;2.73;1.40;;;;;13.30;100653.00;;;;10307997;28;20227;-79
2024/04/07 23:43:55;;;;;;;4.87;1.27;;;;;13.30;100652.00;;;;10306593;28;20223;-78
2024/04/07 23:48:57;;;;;;;3.50;1.50;;;;;13.30;100655.00;;;;10288367;28;20230;-79
2024/04/07 23:53:58;;;;;;;2.97;1.30;;;;;13.30;100653.00;;;;10308775;28;20227;-78
2024/04/07 23:58:59;;;;;;;3.40;1.57;;;;;13.30;100670.00;;;;10311064;28;20223;-78
